EGV1339 EGLL-TBPB
Flight info
| Callsign | EGV1339 |
|---|---|
| Flight time | N/A |
| Altitude | 34000 |
| Route | GASGU N514 ADKIK DCT JOZMA DCT GAPLI/M083F340 DCT OMOKO DCT 43N020W DCT VMG/M083F360 DCT 34N030W 27N040W 20N050W/M083F380 DCT JTHON/N0478F380 DCT BGI |
| Aircraft | A346/H-SDE2E3FGHIJ3J4J5M1RWXY/LB1D1 |
Departure
| Time | 2026-05-06 11:16 |
|---|---|
| Airport | London Heathrow Airport (EGLL) |
Arrival
| Time | N/A |
|---|---|
| Airport | Grantley Adams International Airport (TBPB) |
| Time | Latitude | Longitude | Altitude | Speed | Heading |
|---|---|---|---|---|---|
| 2026-05-06 10:45 | 51.46986 | -0.46985 | 96 ft | 0 kts | 270° |
| 2026-05-06 11:02 | 51.46986 | -0.46983 | 94 ft | 0 kts | 270° |
| 2026-05-06 11:02 | 51.46986 | -0.46947 | 96 ft | 0 kts | 270° |
| 2026-05-06 11:02 | 51.46986 | -0.46905 | 96 ft | 0 kts | 268° |
| 2026-05-06 11:02 | 51.46993 | -0.46877 | 96 ft | 0 kts | 230° |
| 2026-05-06 11:03 | 51.47008 | -0.46863 | 94 ft | 0 kts | 190° |
| 2026-05-06 11:03 | 51.47019 | -0.46863 | 93 ft | 0 kts | 171° |
| 2026-05-06 11:07 | 51.47018 | -0.46863 | 93 ft | 0 kts | 171° |
| 2026-05-06 11:08 | 51.46996 | -0.46863 | 95 ft | 6 kts | 180° |
| 2026-05-06 11:08 | 51.46926 | -0.46863 | 94 ft | 12 kts | 180° |
| 2026-05-06 11:08 | 51.46835 | -0.46863 | 97 ft | 14 kts | 180° |
| 2026-05-06 11:08 | 51.46756 | -0.46920 | 95 ft | 14 kts | 242° |
| 2026-05-06 11:09 | 51.46746 | -0.47074 | 98 ft | 14 kts | 271° |
| 2026-05-06 11:09 | 51.46746 | -0.47241 | 98 ft | 15 kts | 269° |
| 2026-05-06 11:09 | 51.46746 | -0.47417 | 98 ft | 16 kts | 270° |
| 2026-05-06 11:09 | 51.46745 | -0.47601 | 94 ft | 17 kts | 270° |
| 2026-05-06 11:10 | 51.46745 | -0.47791 | 94 ft | 17 kts | 270° |
| 2026-05-06 11:10 | 51.46744 | -0.47986 | 94 ft | 18 kts | 270° |
| 2026-05-06 11:10 | 51.46744 | -0.48185 | 94 ft | 18 kts | 270° |
| 2026-05-06 11:10 | 51.46743 | -0.48390 | 94 ft | 18 kts | 270° |
| 2026-05-06 11:11 | 51.46742 | -0.48601 | 94 ft | 19 kts | 269° |
| 2026-05-06 11:11 | 51.46697 | -0.48739 | 98 ft | 13 kts | 192° |
| 2026-05-06 11:11 | 51.46631 | -0.48755 | 95 ft | 5 kts | 193° |
| 2026-05-06 11:11 | 51.46621 | -0.48759 | 96 ft | 0 kts | 196° |
| 2026-05-06 11:14 | 51.46555 | -0.48784 | 98 ft | 12 kts | 184° |
| 2026-05-06 11:14 | 51.46487 | -0.48718 | 98 ft | 13 kts | 110° |
| 2026-05-06 11:14 | 51.46479 | -0.48571 | 94 ft | 14 kts | 90° |
| 2026-05-06 11:14 | 51.46478 | -0.48406 | 95 ft | 20 kts | 90° |
| 2026-05-06 11:15 | 51.46481 | -0.47876 | 95 ft | 75 kts | 89° |
| 2026-05-06 11:15 | 51.46483 | -0.46763 | 98 ft | 123 kts | 89° |
| 2026-05-06 11:15 | 51.46485 | -0.45160 | 101 ft | 162 kts | 91° |
| 2026-05-06 11:15 | 51.46484 | -0.43273 | 378 ft | 170 kts | 85° |
| 2026-05-06 11:16 | 51.46486 | -0.41392 | 832 ft | 172 kts | 98° |
| 2026-05-06 11:16 | 51.45972 | -0.39578 | 1148 ft | 190 kts | 125° |
| 2026-05-06 11:16 | 51.45078 | -0.37955 | 1585 ft | 195 kts | 125° |
| 2026-05-06 11:16 | 51.44270 | -0.36179 | 2053 ft | 200 kts | 122° |
| 2026-05-06 11:17 | 51.43307 | -0.34470 | 2330 ft | 218 kts | 150° |
| 2026-05-06 11:17 | 51.41795 | -0.33930 | 2622 ft | 231 kts | 177° |
| 2026-05-06 11:17 | 51.40136 | -0.33901 | 2875 ft | 245 kts | 180° |
| 2026-05-06 11:17 | 51.38375 | -0.33970 | 3145 ft | 261 kts | 191° |
| 2026-05-06 11:18 | 51.36688 | -0.35131 | 3475 ft | 270 kts | 220° |
| 2026-05-06 11:18 | 51.35308 | -0.37183 | 4025 ft | 271 kts | 229° |
| 2026-05-06 11:18 | 51.33992 | -0.39372 | 4632 ft | 275 kts | 229° |
| 2026-05-06 11:18 | 51.32617 | -0.41535 | 5220 ft | 279 kts | 225° |
| 2026-05-06 11:19 | 51.31093 | -0.43474 | 5780 ft | 279 kts | 222° |
| 2026-05-06 11:19 | 51.29838 | -0.45750 | 5994 ft | 270 kts | 248° |
| 2026-05-06 11:19 | 51.29311 | -0.48569 | 6005 ft | 263 kts | 265° |
| 2026-05-06 11:19 | 51.29020 | -0.51466 | 6068 ft | 268 kts | 264° |
| 2026-05-06 11:20 | 51.28641 | -0.54412 | 6674 ft | 270 kts | 261° |
| 2026-05-06 11:20 | 51.28191 | -0.57309 | 7474 ft | 268 kts | 258° |
| 2026-05-06 11:20 | 51.27671 | -0.60197 | 8127 ft | 272 kts | 256° |
| 2026-05-06 11:20 | 51.27114 | -0.63123 | 8724 ft | 278 kts | 256° |
| 2026-05-06 11:21 | 51.26536 | -0.66100 | 9359 ft | 282 kts | 256° |
| 2026-05-06 11:21 | 51.25949 | -0.69107 | 9973 ft | 286 kts | 255° |
| 2026-05-06 11:21 | 51.25346 | -0.72169 | 10444 ft | 294 kts | 256° |
| 2026-05-06 11:21 | 51.24726 | -0.75368 | 10720 ft | 309 kts | 255° |
| 2026-05-06 11:22 | 51.24070 | -0.78725 | 10976 ft | 324 kts | 254° |
| 2026-05-06 11:22 | 51.23379 | -0.82241 | 11270 ft | 339 kts | 254° |
| 2026-05-06 11:22 | 51.22667 | -0.85852 | 11541 ft | 353 kts | 255° |
| 2026-05-06 11:22 | 51.21913 | -0.89678 | 11809 ft | 367 kts | 255° |
| 2026-05-06 11:23 | 51.21055 | -0.93581 | 12193 ft | 378 kts | 248° |
| 2026-05-06 11:23 | 51.19860 | -0.97343 | 12809 ft | 382 kts | 241° |
| 2026-05-06 11:23 | 51.18341 | -1.00851 | 13497 ft | 385 kts | 235° |
| 2026-05-06 11:23 | 51.16698 | -1.04245 | 14141 ft | 387 kts | 233° |
| 2026-05-06 11:24 | 51.15030 | -1.07639 | 14702 ft | 390 kts | 233° |
| 2026-05-06 11:24 | 51.13349 | -1.11054 | 15263 ft | 393 kts | 233° |
| 2026-05-06 11:24 | 51.11659 | -1.14487 | 15856 ft | 394 kts | 233° |
| 2026-05-06 11:24 | 51.09966 | -1.17950 | 16433 ft | 397 kts | 233° |
| 2026-05-06 11:25 | 51.08263 | -1.21429 | 16979 ft | 400 kts | 233° |
| 2026-05-06 11:25 | 51.06542 | -1.24934 | 17550 ft | 402 kts | 234° |
| 2026-05-06 11:25 | 51.04837 | -1.28405 | 18127 ft | 404 kts | 233° |
| 2026-05-06 11:25 | 51.03074 | -1.31994 | 18598 ft | 408 kts | 233° |
| 2026-05-06 11:26 | 51.01408 | -1.35638 | 19061 ft | 409 kts | 239° |
| 2026-05-06 11:26 | 51.00068 | -1.39613 | 19539 ft | 410 kts | 247° |
| 2026-05-06 11:26 | 50.99080 | -1.43874 | 19984 ft | 413 kts | 254° |
| 2026-05-06 11:26 | 50.98304 | -1.48287 | 20444 ft | 415 kts | 256° |
| 2026-05-06 11:27 | 50.97558 | -1.52719 | 20944 ft | 417 kts | 256° |
| 2026-05-06 11:27 | 50.96806 | -1.57191 | 21372 ft | 420 kts | 255° |
| 2026-05-06 11:27 | 50.96045 | -1.61681 | 21785 ft | 423 kts | 255° |
| 2026-05-06 11:27 | 50.95273 | -1.66207 | 22237 ft | 425 kts | 255° |
| 2026-05-06 11:28 | 50.94494 | -1.70744 | 22697 ft | 427 kts | 255° |
| 2026-05-06 11:28 | 50.93707 | -1.75310 | 23084 ft | 431 kts | 255° |
| 2026-05-06 11:28 | 50.92911 | -1.79909 | 23502 ft | 433 kts | 255° |
| 2026-05-06 11:28 | 50.92109 | -1.84530 | 23894 ft | 435 kts | 255° |
| 2026-05-06 11:29 | 50.91301 | -1.89171 | 24258 ft | 438 kts | 255° |
| 2026-05-06 11:29 | 50.90484 | -1.93842 | 24590 ft | 441 kts | 255° |
| 2026-05-06 11:29 | 50.89662 | -1.98537 | 24963 ft | 442 kts | 255° |
| 2026-05-06 11:29 | 50.88837 | -2.03241 | 25329 ft | 444 kts | 255° |
| 2026-05-06 11:30 | 50.88003 | -2.07982 | 25650 ft | 447 kts | 255° |
| 2026-05-06 11:30 | 50.87162 | -2.12746 | 25992 ft | 449 kts | 255° |
| 2026-05-06 11:30 | 50.86315 | -2.17528 | 26358 ft | 451 kts | 255° |
| 2026-05-06 11:30 | 50.85464 | -2.22330 | 26645 ft | 454 kts | 255° |
| 2026-05-06 11:31 | 50.84603 | -2.27170 | 26959 ft | 457 kts | 255° |
| 2026-05-06 11:31 | 50.83748 | -2.31964 | 27288 ft | 459 kts | 255° |
| 2026-05-06 11:31 | 50.82875 | -2.36848 | 27587 ft | 462 kts | 255° |
| 2026-05-06 11:31 | 50.81995 | -2.41752 | 27900 ft | 464 kts | 255° |
| 2026-05-06 11:32 | 50.81098 | -2.46734 | 28324 ft | 464 kts | 255° |
| 2026-05-06 11:32 | 50.80236 | -2.51575 | 28774 ft | 463 kts | 256° |
| 2026-05-06 11:32 | 50.79481 | -2.56529 | 29224 ft | 462 kts | 259° |
| 2026-05-06 11:32 | 50.78870 | -2.61508 | 29694 ft | 460 kts | 260° |
| 2026-05-06 11:33 | 50.78293 | -2.66474 | 30134 ft | 459 kts | 260° |
| 2026-05-06 11:33 | 50.77717 | -2.71444 | 30473 ft | 459 kts | 260° |
| 2026-05-06 11:33 | 50.77138 | -2.76411 | 30859 ft | 458 kts | 260° |
| 2026-05-06 11:33 | 50.76562 | -2.81344 | 31262 ft | 456 kts | 260° |
| 2026-05-06 11:34 | 50.75985 | -2.86267 | 31649 ft | 454 kts | 260° |
| 2026-05-06 11:34 | 50.75406 | -2.91172 | 32061 ft | 452 kts | 260° |
| 2026-05-06 11:34 | 50.74829 | -2.96039 | 32462 ft | 450 kts | 260° |
| 2026-05-06 11:34 | 50.74251 | -3.00903 | 32741 ft | 451 kts | 260° |
| 2026-05-06 11:35 | 50.73667 | -3.05791 | 32965 ft | 453 kts | 260° |
| 2026-05-06 11:35 | 50.73081 | -3.10680 | 33224 ft | 453 kts | 260° |
| 2026-05-06 11:35 | 50.72491 | -3.15587 | 33493 ft | 454 kts | 259° |
| 2026-05-06 11:35 | 50.71900 | -3.20492 | 33732 ft | 455 kts | 259° |
| 2026-05-06 11:36 | 50.71303 | -3.25411 | 33981 ft | 456 kts | 259° |
| 2026-05-06 11:36 | 50.70104 | -3.35264 | 34025 ft | 457 kts | 259° |
| 2026-05-06 11:37 | 50.68894 | -3.45114 | 34036 ft | 457 kts | 259° |
| 2026-05-06 11:37 | 50.67676 | -3.54964 | 34038 ft | 457 kts | 259° |
| 2026-05-06 11:38 | 50.66459 | -3.64738 | 34034 ft | 457 kts | 259° |
| 2026-05-06 11:38 | 50.65218 | -3.74635 | 34032 ft | 456 kts | 259° |
| 2026-05-06 11:39 | 50.63989 | -3.84369 | 34029 ft | 455 kts | 259° |
| 2026-05-06 11:39 | 50.62735 | -3.94208 | 34021 ft | 454 kts | 259° |
| 2026-05-06 11:40 | 50.61433 | -4.03898 | 34015 ft | 454 kts | 258° |
| 2026-05-06 11:40 | 50.60092 | -4.13640 | 34019 ft | 455 kts | 258° |
| 2026-05-06 11:41 | 50.58747 | -4.23379 | 34019 ft | 454 kts | 258° |
| 2026-05-06 11:41 | 50.57401 | -4.33087 | 34014 ft | 453 kts | 258° |
| 2026-05-06 11:42 | 50.56049 | -4.42776 | 34010 ft | 454 kts | 258° |
| 2026-05-06 11:42 | 50.54684 | -4.52504 | 34020 ft | 455 kts | 258° |
| 2026-05-06 11:43 | 50.53311 | -4.62225 | 34017 ft | 455 kts | 258° |
| 2026-05-06 11:43 | 50.51930 | -4.71933 | 34026 ft | 453 kts | 258° |
| 2026-05-06 11:44 | 50.49852 | -4.86436 | 34034 ft | 453 kts | 258° |
| 2026-05-06 11:44 | 50.48454 | -4.96111 | 34037 ft | 453 kts | 258° |
| 2026-05-06 11:45 | 50.47049 | -5.05774 | 34032 ft | 453 kts | 257° |
| 2026-05-06 11:45 | 50.45637 | -5.15428 | 34033 ft | 453 kts | 257° |
| 2026-05-06 11:46 | 50.44226 | -5.25014 | 34030 ft | 453 kts | 257° |
| 2026-05-06 11:46 | 50.42797 | -5.34661 | 34026 ft | 453 kts | 257° |
| 2026-05-06 11:47 | 50.41593 | -5.42743 | 34026 ft | 453 kts | 257° |
| 2026-05-06 11:47 | 50.40151 | -5.52371 | 34022 ft | 453 kts | 257° |
| 2026-05-06 11:48 | 50.38711 | -5.61931 | 34029 ft | 453 kts | 257° |
| 2026-05-06 11:48 | 50.37253 | -5.71545 | 34031 ft | 453 kts | 257° |
| 2026-05-06 11:49 | 50.35788 | -5.81146 | 34032 ft | 452 kts | 257° |
| 2026-05-06 11:49 | 50.34315 | -5.90745 | 34036 ft | 452 kts | 257° |
| 2026-05-06 11:50 | 50.32835 | -6.00336 | 34039 ft | 453 kts | 257° |
| 2026-05-06 11:50 | 50.31347 | -6.09915 | 34050 ft | 452 kts | 257° |
| 2026-05-06 11:51 | 50.29852 | -6.19481 | 34049 ft | 452 kts | 257° |
| 2026-05-06 11:51 | 50.28350 | -6.29041 | 34047 ft | 452 kts | 257° |
| 2026-05-06 11:52 | 50.26840 | -6.38599 | 34050 ft | 452 kts | 256° |
| 2026-05-06 11:52 | 50.25323 | -6.48144 | 34051 ft | 452 kts | 256° |
| 2026-05-06 11:53 | 50.23799 | -6.57670 | 34054 ft | 451 kts | 256° |
| 2026-05-06 11:53 | 50.22266 | -6.67204 | 34051 ft | 452 kts | 256° |
| 2026-05-06 11:54 | 50.20725 | -6.76733 | 34053 ft | 452 kts | 256° |
| 2026-05-06 11:54 | 50.19186 | -6.86194 | 34057 ft | 452 kts | 256° |
| 2026-05-06 11:55 | 50.17630 | -6.95711 | 34054 ft | 452 kts | 256° |
| 2026-05-06 11:55 | 50.16064 | -7.05233 | 34056 ft | 452 kts | 256° |
| 2026-05-06 11:56 | 50.14491 | -7.14738 | 34056 ft | 452 kts | 256° |
| 2026-05-06 11:56 | 50.12910 | -7.24242 | 34057 ft | 452 kts | 256° |
| 2026-05-06 11:57 | 50.11322 | -7.33738 | 34055 ft | 452 kts | 256° |
| 2026-05-06 11:57 | 50.09728 | -7.43221 | 34056 ft | 452 kts | 256° |
| 2026-05-06 11:58 | 50.08124 | -7.52701 | 34057 ft | 452 kts | 256° |
| 2026-05-06 11:58 | 50.06512 | -7.62184 | 34057 ft | 452 kts | 256° |
| 2026-05-06 11:59 | 50.04894 | -7.71650 | 34054 ft | 452 kts | 255° |
| 2026-05-06 11:59 | 50.03270 | -7.81113 | 34053 ft | 452 kts | 255° |
| 2026-05-06 12:00 | 50.01635 | -7.90566 | 34055 ft | 452 kts | 255° |
| 2026-05-06 12:00 | 49.99880 | -7.99888 | 34057 ft | 452 kts | 251° |
| 2026-05-06 12:01 | 49.97581 | -8.08997 | 34056 ft | 452 kts | 248° |
| 2026-05-06 12:01 | 49.95160 | -8.18027 | 34054 ft | 452 kts | 248° |
| 2026-05-06 12:02 | 49.92734 | -8.27052 | 34052 ft | 452 kts | 248° |
| 2026-05-06 12:02 | 49.90299 | -8.36063 | 34054 ft | 452 kts | 248° |
| 2026-05-06 12:03 | 49.87856 | -8.45074 | 34055 ft | 452 kts | 248° |
| 2026-05-06 12:03 | 49.85406 | -8.54072 | 34057 ft | 452 kts | 248° |
| 2026-05-06 12:04 | 49.82951 | -8.63053 | 34055 ft | 452 kts | 247° |
| 2026-05-06 12:04 | 49.80489 | -8.72036 | 34061 ft | 453 kts | 247° |
| 2026-05-06 12:05 | 49.78017 | -8.81011 | 34061 ft | 453 kts | 247° |
| 2026-05-06 12:05 | 49.75537 | -8.89978 | 34062 ft | 453 kts | 247° |
| 2026-05-06 12:06 | 49.73052 | -8.98933 | 34060 ft | 453 kts | 247° |
| 2026-05-06 12:06 | 49.70560 | -9.07881 | 34066 ft | 453 kts | 247° |
| 2026-05-06 12:07 | 49.68072 | -9.16784 | 34066 ft | 454 kts | 246° |
| 2026-05-06 12:07 | 49.65557 | -9.25741 | 34064 ft | 454 kts | 246° |
| 2026-05-06 12:08 | 49.63036 | -9.34688 | 34066 ft | 454 kts | 246° |
| 2026-05-06 12:08 | 49.60508 | -9.43629 | 34070 ft | 454 kts | 246° |
| 2026-05-06 12:09 | 49.57973 | -9.52556 | 34068 ft | 454 kts | 246° |
| 2026-05-06 12:09 | 49.55436 | -9.61467 | 34068 ft | 453 kts | 246° |
| 2026-05-06 12:10 | 49.52897 | -9.70345 | 34068 ft | 453 kts | 246° |
| 2026-05-06 12:10 | 49.50352 | -9.79211 | 34078 ft | 453 kts | 246° |
| 2026-05-06 12:11 | 49.47797 | -9.88078 | 34079 ft | 453 kts | 246° |
| 2026-05-06 12:11 | 49.45234 | -9.96946 | 34076 ft | 453 kts | 246° |
| 2026-05-06 12:12 | 49.42665 | -10.05795 | 34079 ft | 453 kts | 246° |
| 2026-05-06 12:12 | 49.40086 | -10.14645 | 34078 ft | 453 kts | 246° |
| 2026-05-06 12:13 | 49.37502 | -10.23486 | 34081 ft | 453 kts | 245° |
| 2026-05-06 12:13 | 49.34927 | -10.32260 | 34084 ft | 454 kts | 245° |
| 2026-05-06 12:14 | 49.32318 | -10.41120 | 34080 ft | 455 kts | 245° |
| 2026-05-06 12:14 | 49.29701 | -10.49974 | 34080 ft | 455 kts | 245° |
| 2026-05-06 12:15 | 49.27079 | -10.58812 | 34085 ft | 455 kts | 245° |
| 2026-05-06 12:15 | 49.24452 | -10.67640 | 34084 ft | 454 kts | 245° |
| 2026-05-06 12:16 | 49.21822 | -10.76442 | 34086 ft | 455 kts | 245° |
| 2026-05-06 12:16 | 49.19176 | -10.85262 | 34086 ft | 456 kts | 245° |
| 2026-05-06 12:17 | 49.16524 | -10.94073 | 34093 ft | 456 kts | 245° |
| 2026-05-06 12:17 | 49.13865 | -11.02876 | 34091 ft | 456 kts | 245° |
| 2026-05-06 12:18 | 49.11201 | -11.11661 | 34094 ft | 456 kts | 245° |
| 2026-05-06 12:18 | 49.08517 | -11.20482 | 34094 ft | 458 kts | 245° |
| 2026-05-06 12:19 | 49.05820 | -11.29318 | 34096 ft | 459 kts | 245° |
| 2026-05-06 12:19 | 49.03116 | -11.38144 | 34096 ft | 459 kts | 245° |
| 2026-05-06 12:20 | 49.00407 | -11.46956 | 34095 ft | 459 kts | 245° |
| 2026-05-06 12:20 | 48.97700 | -11.55720 | 34097 ft | 462 kts | 245° |
| 2026-05-06 12:21 | 48.94956 | -11.64588 | 34095 ft | 463 kts | 245° |
| 2026-05-06 12:21 | 48.92199 | -11.73466 | 34094 ft | 462 kts | 244° |
| 2026-05-06 12:22 | 48.89451 | -11.82279 | 34097 ft | 460 kts | 244° |
| 2026-05-06 12:22 | 48.86614 | -11.91019 | 34103 ft | 461 kts | 241° |
| 2026-05-06 12:23 | 48.83242 | -11.99349 | 34099 ft | 463 kts | 236° |
| 2026-05-06 12:23 | 48.79308 | -12.07105 | 34100 ft | 464 kts | 230° |
| 2026-05-06 12:24 | 48.74918 | -12.14273 | 34103 ft | 464 kts | 227° |
| 2026-05-06 12:24 | 48.70464 | -12.21369 | 34101 ft | 464 kts | 227° |
| 2026-05-06 12:25 | 48.66009 | -12.28453 | 34107 ft | 465 kts | 227° |
| 2026-05-06 12:25 | 48.61569 | -12.35493 | 34102 ft | 464 kts | 226° |
| 2026-05-06 12:26 | 48.57106 | -12.42547 | 34109 ft | 464 kts | 226° |
| 2026-05-06 12:26 | 48.52635 | -12.49594 | 34109 ft | 464 kts | 226° |
| 2026-05-06 12:27 | 48.48167 | -12.56619 | 34106 ft | 464 kts | 226° |
| 2026-05-06 12:27 | 48.43688 | -12.63642 | 34109 ft | 464 kts | 226° |
| 2026-05-06 12:28 | 48.39199 | -12.70660 | 34109 ft | 465 kts | 226° |
| 2026-05-06 12:28 | 48.34705 | -12.77666 | 34106 ft | 464 kts | 226° |
| 2026-05-06 12:29 | 48.30224 | -12.84633 | 34112 ft | 463 kts | 226° |
| 2026-05-06 12:29 | 48.25740 | -12.91589 | 34112 ft | 463 kts | 226° |
| 2026-05-06 12:30 | 48.21239 | -12.98540 | 34115 ft | 464 kts | 227° |
| 2026-05-06 12:30 | 48.16728 | -13.05505 | 34115 ft | 466 kts | 227° |
| 2026-05-06 12:31 | 48.12213 | -13.12459 | 34115 ft | 466 kts | 227° |
| 2026-05-06 12:31 | 48.07722 | -13.19355 | 34113 ft | 466 kts | 226° |
| 2026-05-06 12:32 | 48.03189 | -13.26285 | 34116 ft | 465 kts | 226° |
| 2026-05-06 12:32 | 47.98655 | -13.33206 | 34118 ft | 465 kts | 227° |
| 2026-05-06 12:33 | 47.94114 | -13.40119 | 34122 ft | 465 kts | 226° |
| 2026-05-06 12:33 | 47.89566 | -13.47027 | 34122 ft | 466 kts | 226° |